Time;durP1;ratioP1;P1;durP2;ratioP2;P2;SDS_P1;SDS_P2;PMS_P1;PMS_P2;Temp;Humidity;BMP_temperature;BMP_pressure;BME280_temperature;BME280_humidity;BME280_pressure;Samples;Min_cycle;Max_cycle;Signal;HPM_P1;HPM_P2
2022/01/03 00:01:33;;;;;;;4.13;1.65;;;8.00;99.90;;;;;;5034012;28;20530;-76
2022/01/03 00:03:58;;;;;;;7.38;1.92;;;8.20;99.90;;;;;;5033651;28;20061;-76
2022/01/03 00:06:24;;;;;;;3.67;2.13;;;8.10;99.90;;;;;;5031260;28;20041;-76
2022/01/03 00:08:50;;;;;;;6.85;2.35;;;8.20;99.90;;;;;;5031883;28;20041;-77
2022/01/03 00:11:18;;;;;;;6.95;2.20;;;8.20;99.90;;;;;;5031042;28;20563;-74
2022/01/03 00:13:47;;;;;;;8.57;2.28;;;8.20;99.90;;;;;;5031721;28;20125;-77
2022/01/03 00:16:13;;;;;;;21.23;2.90;;;8.30;99.90;;;;;;5033425;28;20061;-76
2022/01/03 00:18:39;;;;;;;7.47;1.88;;;8.40;99.90;;;;;;5033691;28;20041;-77
2022/01/03 00:21:10;;;;;;;5.85;1.63;;;8.40;99.90;;;;;;5033453;28;20053;-75
2022/01/03 00:23:38;;;;;;;9.10;1.98;;;8.40;99.90;;;;;;5032599;28;20479;-75
2022/01/03 00:26:07;;;;;;;10.68;1.92;;;8.50;99.90;;;;;;5030850;28;20060;-77
2022/01/03 00:28:49;;;;;;;6.70;1.80;;;8.50;99.90;;;;;;5030296;28;20042;-76
2022/01/03 00:31:18;;;;;;;9.52;2.22;;;8.50;99.90;;;;;;5030173;28;20049;-76
2022/01/03 00:33:49;;;;;;;8.30;2.20;;;8.60;99.90;;;;;;5031341;28;20061;-73
2022/01/03 00:36:15;;;;;;;10.98;2.80;;;8.60;99.90;;;;;;5029810;28;20491;-74
2022/01/03 00:38:41;;;;;;;7.75;2.28;;;8.80;99.90;;;;;;5033217;28;20061;-75
2022/01/03 00:41:07;;;;;;;10.95;2.20;;;8.80;99.90;;;;;;5015428;28;20045;-74
2022/01/03 00:43:32;;;;;;;10.18;2.70;;;8.90;99.90;;;;;;5033341;28;20037;-75
2022/01/03 00:45:58;;;;;;;10.15;3.00;;;8.90;99.90;;;;;;5033133;28;20555;-74
2022/01/03 00:48:25;;;;;;;11.50;3.40;;;8.90;99.90;;;;;;5033266;28;20049;-74
2022/01/03 00:50:51;;;;;;;9.23;2.92;;;9.00;99.90;;;;;;5032740;28;20083;-75
2022/01/03 00:53:17;;;;;;;12.77;2.92;;;9.00;99.90;;;;;;5032854;28;20587;-76
2022/01/03 00:56:04;;;;;;;12.50;3.72;;;9.10;99.90;;;;;;5046301;28;20049;-74
2022/01/03 00:58:36;;;;;;;12.70;3.33;;;9.10;99.90;;;;;;5030720;28;20053;-74
2022/01/03 01:01:04;;;;;;;13.15;2.97;;;9.20;99.90;;;;;;5030647;28;20045;-74
2022/01/03 01:03:36;;;;;;;16.45;3.30;;;9.20;99.90;;;;;;5030398;28;20053;-74
2022/01/03 01:06:05;;;;;;;13.10;2.60;;;9.20;99.90;;;;;;5032517;28;20052;-73
2022/01/03 01:08:34;;;;;;;12.30;2.40;;;9.20;99.90;;;;;;5033201;28;20049;-74
2022/01/03 01:11:04;;;;;;;11.70;2.63;;;9.20;99.90;;;;;;5047474;28;20384;-73
2022/01/03 01:13:30;;;;;;;9.13;2.40;;;9.20;99.90;;;;;;5031710;28;20399;-74
2022/01/03 01:15:56;;;;;;;13.43;2.30;;;9.20;99.90;;;;;;5031606;28;20049;-74
2022/01/03 01:18:25;;;;;;;12.50;3.72;;;9.20;99.90;;;;;;5033097;28;20093;-75
2022/01/03 01:20:51;;;;;;;5.68;1.95;;;9.20;99.90;;;;;;5032745;28;20064;-74
2022/01/03 01:23:17;;;;;;;12.60;3.00;;;9.30;99.90;;;;;;5031589;28;20037;-74
2022/01/03 01:28:11;;;;;;;15.55;3.10;;;9.30;99.90;;;;;;5013417;28;20141;-74
2022/01/03 01:30:38;;;;;;;9.20;2.35;;;9.40;99.90;;;;;;5025486;28;20049;-74
2022/01/03 01:33:13;;;;;;;10.40;2.63;;;9.40;99.90;;;;;;5031554;28;20120;-73
2022/01/03 01:35:58;;;;;;;12.65;2.20;;;9.40;99.90;;;;;;5031761;28;20053;-75
2022/01/03 01:38:33;;;;;;;11.82;3.00;;;9.40;99.90;;;;;;5030239;28;20049;-75
2022/01/03 01:41:01;;;;;;;6.82;2.10;;;9.30;99.90;;;;;;5027849;28;20067;-74
2022/01/03 01:43:36;;;;;;;19.95;3.38;;;9.30;99.90;;;;;;5029540;28;20034;-74
2022/01/03 01:46:05;;;;;;;8.07;2.72;;;9.40;99.90;;;;;;5030573;28;20140;-75
2022/01/03 01:48:34;;;;;;;15.30;3.45;;;9.40;99.90;;;;;;5031837;28;20049;-73
2022/01/03 01:51:01;;;;;;;12.32;2.90;;;9.40;99.90;;;;;;5032229;28;20049;-74
2022/01/03 01:53:28;;;;;;;7.95;2.72;;;9.40;99.90;;;;;;5032825;28;20055;-75
2022/01/03 01:55:57;;;;;;;10.48;2.50;;;9.40;99.90;;;;;;5032366;28;20057;-73
2022/01/03 01:58:44;;;;;;;11.70;2.72;;;9.40;99.90;;;;;;5032433;28;20045;-73
2022/01/03 02:01:21;;;;;;;11.77;2.60;;;9.40;99.90;;;;;;5139618;27;20395;-72
2022/01/03 02:04:07;;;;;;;6.25;1.92;;;9.40;99.90;;;;;;5134571;28;20043;-73
2022/01/03 02:06:47;;;;;;;11.98;2.33;;;9.50;99.90;;;;;;5151310;27;20055;-71
2022/01/03 02:09:23;;;;;;;14.68;3.00;;;9.50;99.90;;;;;;5126212;28;20106;-72
2022/01/03 02:11:55;;;;;;;12.40;3.63;;;9.40;99.90;;;;;;5123376;28;20051;-71
2022/01/03 02:14:25;;;;;;;9.50;3.40;;;9.40;99.90;;;;;;5121035;27;20557;-70
2022/01/03 02:16:51;;;;;;;10.52;2.97;;;9.40;99.90;;;;;;5101066;28;20074;-71
2022/01/03 02:19:19;;;;;;;12.02;3.45;;;9.50;99.90;;;;;;5120831;28;20087;-72
2022/01/03 02:21:45;;;;;;;13.45;2.40;;;9.50;99.90;;;;;;5134067;28;20480;-72
2022/01/03 02:24:11;;;;;;;14.80;2.72;;;9.50;99.90;;;;;;5132621;28;20043;-75
2022/01/03 02:26:37;;;;;;;8.55;2.58;;;9.50;99.90;;;;;;5121574;28;20036;-71
2022/01/03 02:29:04;;;;;;;15.82;2.95;;;9.50;99.90;;;;;;5138858;27;20051;-72
2022/01/03 02:31:31;;;;;;;9.73;2.90;;;9.50;99.90;;;;;;5128431;28;20074;-74
2022/01/03 02:33:57;;;;;;;12.90;3.15;;;9.50;99.90;;;;;;5128297;28;20054;-70
2022/01/03 02:36:23;;;;;;;17.70;3.42;;;9.50;99.90;;;;;;5102540;28;20070;-71
2022/01/03 02:38:48;;;;;;;15.38;2.85;;;9.50;99.90;;;;;;5121270;28;20561;-71
2022/01/03 02:41:14;;;;;;;17.42;2.85;;;9.50;99.90;;;;;;5118865;28;20043;-71
2022/01/03 02:43:40;;;;;;;9.80;2.63;;;9.50;99.90;;;;;;5138053;28;20040;-72
2022/01/03 02:46:06;;;;;;;10.32;3.35;;;9.50;99.90;;;;;;5103039;28;20051;-71
2022/01/03 02:48:31;;;;;;;13.00;2.60;;;9.50;99.90;;;;;;5137278;28;20024;-72
2022/01/03 02:50:57;;;;;;;10.75;2.65;;;9.50;99.90;;;;;;5110250;28;20051;-70
2022/01/03 02:53:23;;;;;;;11.00;2.70;;;9.40;99.90;;;;;;5116947;28;20043;-74
2022/01/03 02:55:49;;;;;;;12.55;2.50;;;9.40;99.90;;;;;;5133389;28;20536;-72
2022/01/03 02:58:15;;;;;;;10.25;2.63;;;9.40;99.90;;;;;;5130637;28;20501;-73
2022/01/03 03:00:48;;;;;;;10.05;2.40;;;9.40;99.90;;;;;;5124577;28;20067;-72
2022/01/03 03:03:15;;;;;;;9.00;2.33;;;9.40;99.90;;;;;;5127312;28;20055;-73
2022/01/03 03:05:42;;;;;;;15.20;2.25;;;9.30;99.90;;;;;;5123437;28;20044;-72
2022/01/03 03:08:08;;;;;;;16.35;2.83;;;9.30;99.90;;;;;;5100545;28;20043;-74
2022/01/03 03:10:34;;;;;;;10.15;2.17;;;9.30;99.90;;;;;;5121012;28;20075;-75
2022/01/03 03:13:01;;;;;;;17.15;3.10;;;9.30;99.90;;;;;;5112685;28;20565;-72
2022/01/03 03:15:26;;;;;;;13.02;2.55;;;9.30;99.90;;;;;;5114530;28;20501;-72
2022/01/03 03:17:52;;;;;;;8.35;2.13;;;9.30;99.90;;;;;;5122081;28;20067;-74
2022/01/03 03:20:27;;;;;;;12.30;2.40;;;9.30;99.90;;;;;;5105105;28;20036;-72
2022/01/03 03:22:53;;;;;;;12.68;2.35;;;9.30;99.90;;;;;;5123208;28;20043;-75
2022/01/03 03:25:27;;;;;;;14.43;3.13;;;9.30;99.90;;;;;;5106375;28;20044;-74
2022/01/03 03:28:05;;;;;;;14.82;2.72;;;9.30;99.90;;;;;;5121997;28;20057;-73
2022/01/03 03:30:42;;;;;;;12.88;3.88;;;9.20;99.90;;;;;;5118714;28;20520;-72
2022/01/03 03:33:12;;;;;;;13.13;2.55;;;9.30;99.90;;;;;;5104898;28;20044;-72
2022/01/03 03:35:39;;;;;;;12.55;2.05;;;9.30;99.90;;;;;;5097970;28;20051;-71
2022/01/03 03:38:05;;;;;;;16.63;2.72;;;9.20;99.90;;;;;;5089022;28;20099;-72
2022/01/03 03:40:31;;;;;;;11.52;2.50;;;9.20;99.90;;;;;;5122981;28;20124;-73
2022/01/03 03:42:57;;;;;;;10.63;2.33;;;9.10;99.90;;;;;;5124945;28;20383;-73
2022/01/03 03:45:23;;;;;;;12.50;2.55;;;9.10;99.90;;;;;;5121121;28;20069;-71
2022/01/03 03:47:51;;;;;;;12.57;2.78;;;9.10;99.90;;;;;;5123329;28;20455;-72
2022/01/03 03:50:18;;;;;;;10.85;2.38;;;9.10;99.90;;;;;;5119818;28;20418;-71
2022/01/03 03:52:44;;;;;;;12.38;2.55;;;9.10;99.90;;;;;;5105162;28;20111;-72
2022/01/03 03:55:10;;;;;;;9.63;2.35;;;9.10;99.90;;;;;;5105707;28;20083;-71
2022/01/03 03:57:36;;;;;;;16.20;3.20;;;9.10;99.90;;;;;;5121158;28;20031;-71
2022/01/03 04:00:05;;;;;;;13.43;3.25;;;9.00;99.90;;;;;;5123714;28;20042;-72
2022/01/03 04:02:31;;;;;;;14.10;2.88;;;9.00;99.90;;;;;;5120720;28;20048;-72
2022/01/03 04:04:59;;;;;;;15.55;3.15;;;9.00;99.90;;;;;;5120762;28;20549;-71
2022/01/03 04:07:24;;;;;;;17.13;2.97;;;9.00;99.90;;;;;;5112474;28;20036;-75
2022/01/03 04:09:50;;;;;;;16.73;2.83;;;9.10;99.90;;;;;;5098914;28;20084;-73
2022/01/03 04:12:16;;;;;;;16.90;3.35;;;9.00;99.90;;;;;;5095276;28;20047;-73
2022/01/03 04:14:41;;;;;;;14.80;3.10;;;9.10;99.90;;;;;;5122220;28;20054;-72
2022/01/03 04:17:09;;;;;;;12.70;3.30;;;9.00;99.90;;;;;;5122619;28;20044;-75
2022/01/03 04:19:35;;;;;;;16.05;3.22;;;9.00;99.90;;;;;;5103496;28;20036;-71
2022/01/03 04:22:01;;;;;;;13.73;3.03;;;9.00;99.90;;;;;;5122816;28;20055;-71
2022/01/03 04:24:26;;;;;;;16.60;3.38;;;9.00;99.90;;;;;;5119708;28;20059;-73
2022/01/03 04:26:52;;;;;;;11.65;3.38;;;9.80;99.90;;;;;;5123919;28;20044;-74
2022/01/03 04:29:18;;;;;;;13.90;2.92;;;9.00;99.90;;;;;;5123047;28;20043;-73
2022/01/03 04:31:44;;;;;;;15.55;3.15;;;9.10;99.90;;;;;;5081647;28;20046;-71
2022/01/03 04:34:09;;;;;;;15.55;2.75;;;9.00;99.90;;;;;;5116703;28;20047;-70
2022/01/03 04:36:35;;;;;;;17.35;3.58;;;9.10;99.90;;;;;;5115469;28;20048;-72
2022/01/03 04:39:02;;;;;;;10.77;2.55;;;9.00;99.90;;;;;;5085178;28;20052;-74
2022/01/03 04:41:28;;;;;;;13.02;2.45;;;9.10;99.90;;;;;;5101005;28;20040;-72
2022/01/03 04:43:53;;;;;;;13.13;3.40;;;9.10;99.90;;;;;;5118500;28;20047;-74
2022/01/03 04:46:19;;;;;;;19.45;3.40;;;9.10;99.90;;;;;;5072886;28;20405;-73
2022/01/03 04:48:45;;;;;;;15.73;3.22;;;9.10;99.90;;;;;;5108476;28;20040;-74
2022/01/03 04:51:11;;;;;;;17.95;3.40;;;9.10;99.90;;;;;;5116913;28;20122;-73
2022/01/03 04:53:39;;;;;;;15.45;3.42;;;9.20;99.90;;;;;;5103019;28;20082;-72
2022/01/03 04:56:12;;;;;;;14.90;3.15;;;9.20;99.90;;;;;;5110005;28;20063;-76
2022/01/03 04:58:38;;;;;;;13.07;2.78;;;9.30;99.90;;;;;;5102838;28;20047;-76
2022/01/03 05:01:04;;;;;;;14.73;3.22;;;9.30;99.90;;;;;;5121415;28;20063;-74
2022/01/03 05:03:31;;;;;;;11.63;3.17;;;9.20;99.90;;;;;;5120689;28;20090;-73
2022/01/03 05:05:56;;;;;;;11.30;2.42;;;9.20;99.90;;;;;;5120427;28;20055;-74
2022/01/03 05:08:22;;;;;;;14.18;2.95;;;9.30;99.90;;;;;;5105198;28;20048;-72
2022/01/03 05:10:48;;;;;;;13.68;3.05;;;9.30;99.90;;;;;;5118586;28;20054;-73
2022/01/03 05:13:13;;;;;;;12.45;3.15;;;9.20;99.90;;;;;;5116293;28;20044;-73
2022/01/03 05:15:39;;;;;;;13.70;3.00;;;9.20;99.90;;;;;;5109805;28;20035;-74
2022/01/03 05:18:05;;;;;;;13.57;2.95;;;9.20;99.90;;;;;;5096069;28;20066;-77
2022/01/03 05:20:31;;;;;;;12.38;3.03;;;9.30;99.90;;;;;;5107307;28;20063;-73
2022/01/03 05:22:56;;;;;;;14.13;3.28;;;9.20;99.90;;;;;;5118234;28;20043;-71
2022/01/03 05:25:22;;;;;;;14.38;3.42;;;9.20;99.90;;;;;;5091366;28;20052;-73
2022/01/03 05:27:48;;;;;;;18.02;3.08;;;9.20;99.90;;;;;;5088616;28;20050;-71
2022/01/03 05:30:14;;;;;;;14.65;3.33;;;9.30;99.90;;;;;;5120850;28;20078;-74
2022/01/03 05:32:40;;;;;;;17.60;3.80;;;9.20;99.90;;;;;;5089924;28;20075;-72
2022/01/03 05:35:06;;;;;;;11.48;3.45;;;9.30;99.90;;;;;;5117752;28;20493;-74
2022/01/03 05:37:32;;;;;;;15.98;4.07;;;9.30;99.90;;;;;;5086735;28;20051;-70
2022/01/03 05:39:57;;;;;;;20.83;4.53;;;9.20;99.90;;;;;;5120034;28;20178;-71
2022/01/03 05:42:23;;;;;;;21.05;3.72;;;9.20;99.90;;;;;;5119940;28;20043;-73
2022/01/03 05:44:49;;;;;;;16.58;3.10;;;9.30;99.90;;;;;;5114372;28;20039;-73
2022/01/03 05:47:15;;;;;;;12.77;3.35;;;9.30;99.90;;;;;;5087646;28;20176;-72
2022/01/03 05:49:40;;;;;;;17.25;3.20;;;9.30;99.90;;;;;;5117826;28;20086;-74
2022/01/03 05:52:06;;;;;;;16.27;3.80;;;9.30;99.90;;;;;;5112964;28;20134;-71
2022/01/03 05:54:32;;;;;;;17.65;3.78;;;9.20;99.90;;;;;;5116594;28;20028;-73
2022/01/03 05:56:57;;;;;;;17.88;3.83;;;9.30;99.90;;;;;;5083808;28;20641;-72
2022/01/03 05:59:23;;;;;;;16.58;3.92;;;9.30;99.90;;;;;;5120715;28;20078;-71
2022/01/03 06:01:50;;;;;;;16.17;3.17;;;9.30;99.90;;;;;;5082735;28;20063;-71
2022/01/03 06:04:24;;;;;;;11.32;3.00;;;9.20;99.90;;;;;;5090005;28;20130;-76
2022/01/03 06:06:58;;;;;;;13.32;2.92;;;9.20;99.90;;;;;;5096933;28;20051;-72
2022/01/03 06:09:24;;;;;;;13.77;3.63;;;9.10;99.90;;;;;;5089872;28;20054;-73
2022/01/03 06:11:54;;;;;;;13.20;3.97;;;9.10;99.90;;;;;;5106953;28;20047;-71
2022/01/03 06:14:21;;;;;;;15.13;3.55;;;9.10;99.90;;;;;;5109760;28;20052;-72
2022/01/03 06:16:49;;;;;;;11.95;2.67;;;9.20;99.90;;;;;;5115348;28;20071;-71
2022/01/03 06:19:15;;;;;;;15.25;3.40;;;9.10;99.90;;;;;;5087078;28;20441;-71
2022/01/03 06:21:41;;;;;;;15.85;4.07;;;9.10;99.90;;;;;;5119402;28;20057;-70
2022/01/03 06:24:12;;;;;;;14.63;3.47;;;9.10;99.90;;;;;;5101653;28;20050;-75
2022/01/03 06:26:41;;;;;;;17.17;3.63;;;9.10;99.90;;;;;;5120966;28;20056;-71
2022/01/03 06:29:08;;;;;;;18.00;3.33;;;9.10;99.90;;;;;;5121208;28;20058;-71
2022/01/03 06:31:34;;;;;;;18.95;3.58;;;9.00;99.90;;;;;;5120844;28;20702;-72
2022/01/03 06:34:00;;;;;;;19.63;3.10;;;9.10;99.90;;;;;;5120508;28;20124;-74
2022/01/03 06:36:26;;;;;;;11.75;2.72;;;9.00;99.90;;;;;;5118516;28;20051;-71
2022/01/03 06:38:52;;;;;;;14.88;4.57;;;9.00;99.90;;;;;;5120601;28;20098;-71
2022/01/03 06:41:18;;;;;;;19.63;3.30;;;9.00;99.90;;;;;;5101210;28;20088;-72
2022/01/03 06:43:44;;;;;;;13.18;3.75;;;9.00;99.90;;;;;;5121563;28;20497;-73
2022/01/03 06:46:11;;;;;;;19.30;4.45;;;9.00;99.90;;;;;;5086157;28;20510;-72
2022/01/03 06:48:36;;;;;;;13.48;4.65;;;9.00;99.90;;;;;;5123149;28;20043;-73
2022/01/03 06:51:02;;;;;;;23.38;4.28;;;8.90;99.90;;;;;;5124391;28;20044;-73
2022/01/03 06:53:28;;;;;;;16.05;3.75;;;8.90;99.90;;;;;;5104858;28;20047;-72
2022/01/03 06:55:54;;;;;;;22.23;4.53;;;8.60;99.90;;;;;;5124257;28;20494;-72
2022/01/03 06:58:19;;;;;;;16.13;3.88;;;8.80;99.90;;;;;;5122434;28;20054;-72
2022/01/03 07:00:45;;;;;;;18.27;4.10;;;8.80;99.90;;;;;;5125230;28;20050;-71
2022/01/03 07:03:11;;;;;;;19.48;4.65;;;8.80;99.90;;;;;;5122963;28;20044;-73
2022/01/03 07:05:37;;;;;;;17.05;3.17;;;8.80;99.90;;;;;;5117069;28;20066;-74
2022/01/03 07:08:02;;;;;;;13.80;3.58;;;8.90;99.90;;;;;;5069860;28;20043;-74
2022/01/03 07:10:28;;;;;;;15.43;3.85;;;8.90;99.90;;;;;;5115350;28;20051;-72
2022/01/03 07:12:55;;;;;;;15.05;3.65;;;9.00;99.90;;;;;;5123749;28;20102;-73
2022/01/03 07:20:52;;;;;;;20.35;4.75;;;9.10;99.90;;;;;;5109346;28;20048;-73
2022/01/03 07:23:19;;;;;;;13.43;3.33;;;9.10;99.90;;;;;;5123448;28;20052;-72
2022/01/03 07:25:47;;;;;;;19.05;3.50;;;9.00;99.90;;;;;;5089847;28;20046;-71
2022/01/03 07:28:14;;;;;;;19.38;4.32;;;9.10;99.90;;;;;;5104796;28;20036;-70
2022/01/03 07:30:40;;;;;;;22.33;4.53;;;9.00;99.90;;;;;;5123926;28;20118;-72
2022/01/03 07:33:05;;;;;;;21.85;3.50;;;9.00;99.90;;;;;;5112652;28;20067;-72
2022/01/03 07:35:31;;;;;;;21.27;4.75;;;9.10;99.90;;;;;;5103355;28;20036;-74
2022/01/03 07:37:58;;;;;;;19.35;4.00;;;9.10;99.90;;;;;;5122861;28;20414;-71
2022/01/03 07:40:25;;;;;;;18.42;3.72;;;9.10;99.90;;;;;;5121271;28;20051;-73
2022/01/03 07:42:51;;;;;;;21.08;4.60;;;9.20;99.90;;;;;;5124950;27;20047;-73
2022/01/03 07:45:17;;;;;;;17.25;4.03;;;9.20;99.90;;;;;;5104568;28;20050;-75
2022/01/03 07:47:43;;;;;;;17.77;3.53;;;9.20;99.90;;;;;;5123502;28;20082;-72
2022/01/03 07:50:10;;;;;;;17.92;5.13;;;9.20;99.90;;;;;;5104061;28;20051;-71
2022/01/03 07:52:36;;;;;;;23.77;4.93;;;9.20;99.90;;;;;;5106278;28;20083;-73
2022/01/03 07:55:04;;;;;;;20.83;4.75;;;9.20;99.90;;;;;;5100186;28;20040;-71
2022/01/03 07:57:30;;;;;;;16.50;3.58;;;9.20;99.90;;;;;;5123066;28;20065;-73
2022/01/03 07:59:55;;;;;;;18.15;4.65;;;9.20;99.90;;;;;;5113166;28;20118;-74
2022/01/03 08:02:21;;;;;;;17.17;4.03;;;9.20;99.90;;;;;;5111755;28;20051;-73
2022/01/03 08:04:47;;;;;;;15.90;3.97;;;9.30;99.90;;;;;;5117686;28;20039;-72
2022/01/03 08:07:12;;;;;;;22.17;3.97;;;9.30;99.90;;;;;;5115877;28;20127;-72
2022/01/03 08:09:38;;;;;;;18.15;3.90;;;9.30;99.90;;;;;;5122954;28;20085;-73
2022/01/03 08:12:05;;;;;;;17.02;3.78;;;9.30;99.90;;;;;;5088930;28;20044;-72
2022/01/03 08:14:32;;;;;;;23.25;4.85;;;9.30;99.90;;;;;;5122537;28;20044;-74
2022/01/03 08:16:58;;;;;;;19.77;4.10;;;9.30;99.90;;;;;;5124412;28;20420;-73
2022/01/03 08:19:23;;;;;;;16.35;3.33;;;9.30;99.90;;;;;;5095190;28;20075;-72
2022/01/03 08:21:49;;;;;;;12.95;3.97;;;9.40;99.90;;;;;;5104740;28;20054;-73
2022/01/03 08:24:16;;;;;;;18.38;4.85;;;9.40;99.90;;;;;;5120843;28;20040;-73
2022/01/03 08:26:41;;;;;;;18.67;4.63;;;9.40;99.90;;;;;;5122566;28;20040;-77
2022/01/03 08:29:09;;;;;;;23.67;4.68;;;9.40;99.90;;;;;;5076945;28;20051;-71
2022/01/03 08:31:36;;;;;;;19.50;3.60;;;9.50;99.90;;;;;;5109596;28;20039;-72
2022/01/03 08:34:03;;;;;;;21.15;4.88;;;9.50;99.90;;;;;;5103540;28;20040;-72
2022/01/03 08:36:29;;;;;;;17.33;3.83;;;9.50;99.90;;;;;;5098573;28;20060;-75
2022/01/03 08:38:55;;;;;;;18.55;4.65;;;9.50;99.90;;;;;;5098887;28;20056;-73
2022/01/03 08:41:21;;;;;;;16.83;3.80;;;9.60;99.90;;;;;;5098369;28;20072;-74
2022/01/03 08:43:47;;;;;;;19.27;4.13;;;9.60;99.90;;;;;;5125832;27;20067;-72
2022/01/03 08:46:13;;;;;;;19.88;3.35;;;9.60;99.90;;;;;;5093124;28;20048;-75
2022/01/03 08:48:39;;;;;;;15.93;3.33;;;9.60;99.90;;;;;;5097699;28;20047;-74
2022/01/03 08:51:05;;;;;;;22.60;4.18;;;9.60;99.90;;;;;;5081434;28;20044;-73
2022/01/03 08:53:31;;;;;;;18.40;3.83;;;9.70;99.90;;;;;;5096819;28;20044;-71
2022/01/03 08:55:57;;;;;;;14.48;4.22;;;9.70;99.90;;;;;;5101403;28;20060;-73
2022/01/03 08:58:26;;;;;;;19.55;4.07;;;9.70;99.90;;;;;;5098586;28;20051;-74
2022/01/03 09:00:52;;;;;;;15.57;3.58;;;9.70;99.90;;;;;;5092422;28;20040;-73
2022/01/03 09:03:18;;;;;;;13.73;3.30;;;9.70;99.90;;;;;;5114166;28;20102;-74
2022/01/03 09:05:44;;;;;;;14.30;3.70;;;9.70;99.90;;;;;;5099713;28;20586;-74
2022/01/03 09:08:11;;;;;;;14.25;3.03;;;9.70;99.90;;;;;;5095217;28;20056;-75
2022/01/03 09:10:39;;;;;;;18.50;3.90;;;9.70;99.90;;;;;;5102086;28;20111;-71
2022/01/03 09:13:05;;;;;;;17.40;3.97;;;9.60;99.90;;;;;;5100975;28;20063;-69
2022/01/03 09:15:31;;;;;;;13.00;3.20;;;9.70;99.90;;;;;;5099955;28;20036;-74
2022/01/03 09:17:57;;;;;;;19.77;4.47;;;9.70;99.90;;;;;;5083015;28;20043;-78
2022/01/03 09:20:23;;;;;;;17.10;3.80;;;9.70;99.90;;;;;;5099022;28;20048;-72
2022/01/03 09:22:52;;;;;;;12.43;3.17;;;9.70;99.90;;;;;;5100245;28;20067;-73
2022/01/03 09:30:30;;;;;;;;;;;9.80;99.90;;;;;;5097932;28;20044;-72
2022/01/03 09:32:56;;;;;;;19.37;4.77;;;9.80;99.90;;;;;;5099398;28;19984;-77
2022/01/03 09:35:22;;;;;;;18.63;3.65;;;9.80;99.90;;;;;;5118657;27;20051;-70
2022/01/03 09:37:48;;;;;;;13.73;3.40;;;9.80;99.90;;;;;;5086647;28;20074;-74
2022/01/03 09:40:15;;;;;;;15.57;3.40;;;9.80;99.90;;;;;;5086605;28;20048;-74
2022/01/03 09:42:43;;;;;;;18.23;3.80;;;9.90;99.90;;;;;;5078307;28;20551;-71
2022/01/03 09:45:14;;;;;;;15.30;4.20;;;9.90;99.90;;;;;;5096242;28;20518;-73
2022/01/03 09:47:42;;;;;;;19.83;4.18;;;10.00;99.90;;;;;;5098096;28;20048;-72
2022/01/03 09:50:09;;;;;;;16.27;4.47;;;10.00;99.90;;;;;;5090259;28;20051;-73
2022/01/03 09:52:36;;;;;;;16.83;3.63;;;10.00;99.90;;;;;;5094557;28;20617;-70
2022/01/03 09:55:03;;;;;;;14.93;3.83;;;10.00;99.90;;;;;;5111991;28;20069;-74
2022/01/03 09:57:30;;;;;;;17.58;3.78;;;10.00;99.90;;;;;;5103030;28;20052;-71
2022/01/03 09:59:58;;;;;;;14.80;3.45;;;10.00;99.90;;;;;;5097554;28;20052;-73
2022/01/03 10:02:24;;;;;;;17.38;4.18;;;10.10;99.90;;;;;;5097375;28;20059;-75
2022/01/03 10:04:49;;;;;;;19.77;3.42;;;10.10;99.90;;;;;;5092082;28;20048;-70
2022/01/03 10:07:17;;;;;;;18.60;3.97;;;10.00;99.90;;;;;;5089927;28;20048;-77
2022/01/03 10:09:43;;;;;;;13.85;3.08;;;10.00;99.90;;;;;;5085130;28;20131;-71
2022/01/03 10:12:11;;;;;;;11.32;3.67;;;10.00;99.90;;;;;;5107540;28;20567;-73
2022/01/03 10:14:37;;;;;;;23.45;5.22;;;10.00;99.90;;;;;;5105515;28;20088;-71
2022/01/03 10:17:03;;;;;;;12.80;3.67;;;10.00;99.90;;;;;;5097508;28;20083;-74
2022/01/03 10:19:28;;;;;;;17.10;3.70;;;10.00;99.90;;;;;;5095935;28;20604;-74
2022/01/03 10:21:54;;;;;;;12.05;3.15;;;10.10;99.90;;;;;;5082246;28;20032;-75
2022/01/03 10:24:33;;;;;;;17.42;3.33;;;10.20;99.90;;;;;;5097589;28;20036;-70
2022/01/03 10:26:58;;;;;;;15.73;3.42;;;10.30;99.90;;;;;;5094843;28;20068;-74
2022/01/03 10:29:31;;;;;;;14.65;3.38;;;10.30;99.90;;;;;;5083857;28;20047;-75
2022/01/03 10:31:58;;;;;;;20.67;3.60;;;10.30;99.90;;;;;;5096465;28;20067;-72
2022/01/03 10:34:25;;;;;;;16.38;2.92;;;10.20;99.90;;;;;;5100856;28;20072;-73
2022/01/03 10:36:54;;;;;;;14.15;2.92;;;10.20;99.90;;;;;;5099470;28;20047;-73
2022/01/03 10:39:26;;;;;;;13.48;2.90;;;10.20;99.90;;;;;;5124485;27;20060;-72
2022/01/03 10:42:14;;;;;;;13.60;2.63;;;10.20;99.90;;;;;;5070195;28;20103;-74
2022/01/03 10:44:41;;;;;;;17.45;3.60;;;10.10;99.90;;;;;;5115163;28;20047;-73
2022/01/03 10:47:08;;;;;;;14.95;3.63;;;10.10;99.90;;;;;;5103924;28;20083;-74
2022/01/03 10:49:37;;;;;;;16.17;3.45;;;10.20;99.90;;;;;;5102217;28;20044;-72
2022/01/03 10:52:19;;;;;;;14.98;3.55;;;10.40;99.90;;;;;;5121723;27;20099;-76
2022/01/03 10:55:09;;;;;;;18.35;3.22;;;10.50;99.90;;;;;;5094712;28;20473;-76
2022/01/03 10:57:47;;;;;;;11.00;2.97;;;10.70;99.90;;;;;;5085599;28;20039;-77
2022/01/03 11:00:28;;;;;;;10.73;2.70;;;10.80;99.90;;;;;;5108764;28;20068;-75
2022/01/03 11:05:57;;;;;;;15.60;3.28;;;10.90;99.90;;;;;;5101139;28;20501;-73
2022/01/03 11:11:10;;;;;;;14.25;3.70;;;10.90;99.90;;;;;;5103196;28;20127;-74
2022/01/03 11:13:47;;;;;;;23.33;4.28;;;10.80;99.90;;;;;;5091529;28;20118;-76
2022/01/03 11:16:13;;;;;;;18.70;3.30;;;10.70;99.90;;;;;;5115158;28;20055;-75
2022/01/03 11:18:47;;;;;;;15.30;3.70;;;10.50;99.90;;;;;;5092807;28;20411;-77
2022/01/03 11:21:23;;;;;;;14.70;3.40;;;10.40;99.90;;;;;;5091360;28;20048;-74
2022/01/03 11:24:03;;;;;;;12.93;3.03;;;10.30;99.90;;;;;;5066609;28;20048;-74
2022/01/03 11:26:30;;;;;;;16.65;3.58;;;10.40;99.90;;;;;;5102714;28;20039;-74
2022/01/03 11:28:57;;;;;;;10.93;3.50;;;10.30;99.90;;;;;;5095683;28;20040;-75
2022/01/03 11:31:23;;;;;;;19.25;4.53;;;10.30;99.90;;;;;;5076937;28;20044;-73
2022/01/03 11:33:51;;;;;;;14.48;2.95;;;10.30;99.90;;;;;;5103009;28;20083;-76
2022/01/03 11:36:22;;;;;;;12.73;3.08;;;10.30;99.90;;;;;;5089849;28;20112;-75
2022/01/03 11:38:49;;;;;;;12.70;3.35;;;10.30;99.90;;;;;;5100738;28;20616;-74
2022/01/03 11:41:15;;;;;;;17.13;3.67;;;10.30;99.90;;;;;;5090987;28;20078;-76
2022/01/03 11:43:43;;;;;;;18.38;4.05;;;10.30;99.90;;;;;;5065494;28;20043;-73
2022/01/03 11:46:10;;;;;;;14.82;3.83;;;10.30;99.90;;;;;;5098504;28;20063;-71
2022/01/03 11:48:37;;;;;;;14.68;3.40;;;10.30;99.90;;;;;;5064894;28;20097;-76
2022/01/03 11:51:10;;;;;;;12.27;3.10;;;10.30;99.90;;;;;;5109543;28;20479;-74
2022/01/03 11:53:41;;;;;;;15.82;3.55;;;10.30;99.90;;;;;;5104153;28;20582;-76
2022/01/03 11:56:13;;;;;;;16.20;3.38;;;10.30;99.90;;;;;;5090671;28;20123;-74
2022/01/03 11:59:06;;;;;;;14.60;3.30;;;10.30;99.90;;;;;;5098662;28;20059;-73
2022/01/03 12:04:40;;;;;;;17.88;3.92;;;10.30;99.90;;;;;;5116754;27;20044;-73
2022/01/03 12:07:15;;;;;;;16.67;3.50;;;10.40;99.90;;;;;;5108943;28;20056;-72
2022/01/03 12:09:50;;;;;;;19.42;3.35;;;10.50;99.90;;;;;;5092278;28;20497;-71
2022/01/03 12:12:34;;;;;;;14.02;3.63;;;10.50;99.90;;;;;;5100739;28;20063;-74
2022/01/03 12:15:02;;;;;;;13.52;3.13;;;10.50;99.90;;;;;;5107367;28;20086;-72
2022/01/03 12:17:47;;;;;;;17.35;4.03;;;10.50;99.90;;;;;;5077354;28;20051;-73
2022/01/03 12:20:13;;;;;;;12.75;3.05;;;10.50;99.90;;;;;;5069544;28;20542;-71
2022/01/03 12:22:53;;;;;;;13.60;3.78;;;10.60;99.90;;;;;;5084425;28;20582;-75
2022/01/03 12:25:29;;;;;;;16.10;4.53;;;10.60;99.90;;;;;;5118351;27;20052;-75
2022/01/03 12:28:00;;;;;;;18.83;3.13;;;10.60;99.90;;;;;;5079948;28;20071;-73
2022/01/03 12:30:29;;;;;;;15.35;3.40;;;10.60;99.90;;;;;;5090016;28;20056;-71
2022/01/03 12:33:07;;;;;;;15.38;3.63;;;10.60;99.90;;;;;;5117445;27;20037;-74
2022/01/03 12:35:38;;;;;;;13.35;3.53;;;10.60;99.90;;;;;;5121948;27;20051;-74
2022/01/03 12:38:04;;;;;;;15.13;4.00;;;10.50;99.90;;;;;;5083106;28;20120;-74
2022/01/03 12:40:57;;;;;;;20.08;4.82;;;10.50;99.90;;;;;;5084590;28;20528;-74
2022/01/03 12:43:35;;;;;;;17.80;3.35;;;10.60;99.90;;;;;;5088736;28;20055;-76
2022/01/03 12:46:01;;;;;;;13.98;3.22;;;10.60;99.90;;;;;;5066985;28;20052;-74
2022/01/03 12:48:32;;;;;;;11.93;3.13;;;10.60;99.90;;;;;;5082738;28;20064;-78
2022/01/03 12:51:02;;;;;;;11.85;3.08;;;10.70;99.90;;;;;;5097757;28;20058;-75
2022/01/03 12:53:27;;;;;;;17.30;3.28;;;10.80;99.90;;;;;;5079229;28;20056;-75
2022/01/03 12:55:56;;;;;;;11.93;3.72;;;10.80;99.90;;;;;;5079224;28;20071;-77
2022/01/03 12:58:21;;;;;;;18.25;3.78;;;10.70;99.90;;;;;;5082957;28;20158;-76
2022/01/03 13:00:53;;;;;;;14.70;3.35;;;10.70;99.90;;;;;;5084803;28;20084;-74
2022/01/03 13:03:22;;;;;;;10.10;2.88;;;10.60;99.90;;;;;;5083026;28;20072;-75
2022/01/03 13:06:13;;;;;;;13.48;3.47;;;10.60;99.90;;;;;;5080858;28;20794;-74
2022/01/03 13:08:42;;;;;;;13.13;2.97;;;10.60;99.90;;;;;;5081721;28;20109;-73
2022/01/03 13:11:12;;;;;;;16.08;3.65;;;10.60;99.90;;;;;;5092535;28;20463;-73
2022/01/03 13:13:40;;;;;;;14.50;2.83;;;10.70;99.90;;;;;;5091991;28;20109;-75